Time,TemperatureF,DewpointF,PressureIn,WindDirection,WindDirectionDegrees,WindSpeedMPH,WindSpeedGustMPH,Humidity,HourlyPrecipIn,Conditions,Clouds,dailyrainin,SoftwareType,DateUTC
2013-01-22 00:02:00,37.3,15.2,29.94,West,259,0.0,0.0,40,0.00,,---,0.00,VWS V14.01,2013-01-22 05:02:00,
2013-01-22 00:07:00,36.9,16.5,29.94,West,280,0.0,4.0,43,0.00,,---,0.00,VWS V14.01,2013-01-22 05:07:00,
2013-01-22 00:12:00,36.4,15.5,29.94,WNW,289,0.0,4.0,42,0.00,,---,0.00,VWS V14.01,2013-01-22 05:12:00,
2013-01-22 00:17:00,36.2,15.3,29.94,WNW,294,2.0,5.0,42,0.00,,---,0.00,VWS V14.01,2013-01-22 05:17:00,
2013-01-22 00:22:00,36.1,15.8,29.94,WNW,286,2.0,4.0,43,0.00,,---,0.00,VWS V14.01,2013-01-22 05:22:00,
2013-01-22 00:27:00,35.8,16.0,29.94,WNW,294,4.0,7.0,44,0.00,,---,0.00,VWS V14.01,2013-01-22 05:27:00,
2013-01-22 00:33:00,35.5,15.8,29.95,West,271,3.0,5.0,44,0.00,,---,0.00,VWS V14.01,2013-01-22 05:33:00,
2013-01-22 00:38:00,35.5,14.7,29.95,WNW,290,0.0,6.0,42,0.00,,---,0.00,VWS V14.01,2013-01-22 05:38:00,
2013-01-22 00:43:00,35.3,15.1,29.95,WNW,291,3.0,6.0,43,0.00,,---,0.00,VWS V14.01,2013-01-22 05:43:00,
2013-01-22 00:48:00,35.2,14.4,29.94,WNW,298,1.0,6.0,42,0.00,,---,0.00,VWS V14.01,2013-01-22 05:48:00,
2013-01-22 00:53:00,34.7,15.0,29.94,WNW,292,3.0,5.0,44,0.00,,---,0.00,VWS V14.01,2013-01-22 05:53:00,
2013-01-22 00:58:00,34.5,14.9,29.94,NW,311,5.0,7.0,44,0.00,,---,0.00,VWS V14.01,2013-01-22 05:58:00,
2013-01-22 01:03:00,34.3,13.6,29.94,NW,315,2.0,5.0,42,0.00,,---,0.00,VWS V14.01,2013-01-22 06:03:00,
2013-01-22 01:08:00,34.3,13.6,29.94,NNW,334,3.0,6.0,42,0.00,,---,0.00,VWS V14.01,2013-01-22 06:08:00,
2013-01-22 01:13:00,34.4,12.0,29.94,NW,325,0.0,11.0,39,0.00,,---,0.00,VWS V14.01,2013-01-22 06:13:00,
2013-01-22 01:18:00,34.4,12.0,29.95,WNW,297,4.0,11.0,39,0.00,,---,0.00,VWS V14.01,2013-01-22 06:18:00,
2013-01-22 01:24:00,34.4,11.4,29.95,WNW,294,6.0,10.0,38,0.00,,---,0.00,VWS V14.01,2013-01-22 06:24:00,
2013-01-22 01:29:00,34.4,11.4,29.96,NW,323,5.0,13.0,38,0.00,,---,0.00,VWS V14.01,2013-01-22 06:29:00,
2013-01-22 01:34:00,34.2,11.3,29.96,West,280,2.0,11.0,38,0.00,,---,0.00,VWS V14.01,2013-01-22 06:34:00,
2013-01-22 01:39:00,34.1,10.6,29.96,WNW,287,10.0,11.0,37,0.00,,---,0.00,VWS V14.01,2013-01-22 06:39:00,
2013-01-22 01:44:00,34.0,9.9,29.96,NNW,336,5.0,12.0,36,0.00,,---,0.00,VWS V14.01,2013-01-22 06:44:00,
2013-01-22 01:49:00,34.0,9.2,29.96,West,272,5.0,12.0,35,0.00,,---,0.00,VWS V14.01,2013-01-22 06:49:00,
2013-01-22 01:54:00,33.8,9.7,29.96,WNW,296,6.0,13.0,36,0.00,,---,0.00,VWS V14.01,2013-01-22 06:54:00,
2013-01-22 01:59:00,33.7,9.6,29.97,WNW,288,3.0,13.0,36,0.00,,---,0.00,VWS V14.01,2013-01-22 06:59:00,
2013-01-22 02:04:00,33.6,9.5,29.97,WNW,286,10.0,10.0,36,0.00,,---,0.00,VWS V14.01,2013-01-22 07:04:00,
2013-01-22 02:09:00,33.4,9.9,29.97,WNW,296,5.0,13.0,37,0.00,,---,0.00,VWS V14.01,2013-01-22 07:09:00,
2013-01-22 02:14:00,33.1,9.7,29.98,WNW,296,5.0,7.0,37,0.00,,---,0.00,VWS V14.01,2013-01-22 07:14:00,
2013-01-22 02:19:00,33.0,9.0,29.98,West,275,2.0,12.0,36,0.00,,---,0.00,VWS V14.01,2013-01-22 07:19:00,
2013-01-22 02:24:00,33.0,9.0,29.98,West,281,5.0,9.0,36,0.00,,---,0.00,VWS V14.01,2013-01-22 07:24:00,
2013-01-22 02:29:00,32.9,8.9,29.97,WNW,297,1.0,11.0,36,0.00,,---,0.00,VWS V14.01,2013-01-22 07:29:00,
2013-01-22 02:34:00,32.8,8.8,29.97,WSW,240,3.0,9.0,36,0.00,,---,0.00,VWS V14.01,2013-01-22 07:34:00,
2013-01-22 02:39:00,32.6,8.6,29.97,WSW,255,1.0,9.0,36,0.00,,---,0.00,VWS V14.01,2013-01-22 07:39:00,
2013-01-22 02:44:00,32.4,8.4,29.98,WNW,289,5.0,6.0,36,0.00,,---,0.00,VWS V14.01,2013-01-22 07:44:00,
2013-01-22 02:50:00,32.1,8.8,29.98,West,263,0.0,1.0,37,0.00,,---,0.00,VWS V14.01,2013-01-22 07:50:00,
2013-01-22 02:55:00,32.0,8.7,29.98,West,259,6.0,7.0,37,0.00,,---,0.00,VWS V14.01,2013-01-22 07:55:00,
2013-01-22 03:00:00,32.0,8.7,29.99,WSW,248,4.0,4.0,37,0.00,,---,0.00,VWS V14.01,2013-01-22 08:00:00,
2013-01-22 03:05:00,31.9,8.6,29.99,West,277,3.0,6.0,37,0.00,,---,0.00,VWS V14.01,2013-01-22 08:05:00,
2013-01-22 03:10:00,31.6,8.9,29.99,WNW,283,4.0,4.0,38,0.00,,---,0.00,VWS V14.01,2013-01-22 08:10:00,
2013-01-22 03:15:00,31.3,8.6,29.99,West,276,1.0,6.0,38,0.00,,---,0.00,VWS V14.01,2013-01-22 08:15:00,
2013-01-22 03:20:00,31.0,9.0,29.99,WNW,290,1.0,2.0,39,0.00,,---,0.00,VWS V14.01,2013-01-22 08:20:00,
2013-01-22 03:25:00,31.0,8.4,29.99,West,277,2.0,7.0,38,0.00,,---,0.00,VWS V14.01,2013-01-22 08:25:00,
2013-01-22 03:30:00,30.9,8.3,29.99,WNW,299,0.0,1.0,38,0.00,,---,0.00,VWS V14.01,2013-01-22 08:30:00,
2013-01-22 03:35:00,30.6,8.6,29.99,West,281,0.0,4.0,39,0.00,,---,0.00,VWS V14.01,2013-01-22 08:35:00,
2013-01-22 03:40:00,30.3,8.3,29.99,WNW,282,1.0,2.0,39,0.00,,---,0.00,VWS V14.01,2013-01-22 08:40:00,
2013-01-22 03:45:00,30.3,8.3,30.00,WNW,282,1.0,3.0,39,0.00,,---,0.00,VWS V14.01,2013-01-22 08:45:00,
2013-01-22 03:50:00,30.1,8.1,30.00,West,261,0.0,0.0,39,0.00,,---,0.00,VWS V14.01,2013-01-22 08:50:00,
2013-01-22 03:55:00,29.8,8.4,30.00,West,261,0.0,2.0,40,0.00,,---,0.00,VWS V14.01,2013-01-22 08:55:00,
2013-01-22 04:00:00,29.5,8.7,30.01,West,261,0.0,2.0,41,0.00,,---,0.00,VWS V14.01,2013-01-22 09:00:00,
2013-01-22 04:05:00,29.3,9.1,30.01,NNE,17,0.0,3.0,42,0.00,,---,0.00,VWS V14.01,2013-01-22 09:05:00,
2013-01-22 04:10:00,29.3,8.5,30.01,NW,324,1.0,3.0,41,0.00,,---,0.00,VWS V14.01,2013-01-22 09:10:00,
2013-01-22 04:15:00,29.3,8.5,30.01,NW,323,0.0,3.0,41,0.00,,---,0.00,VWS V14.01,2013-01-22 09:15:00,
2013-01-22 04:20:00,29.2,8.4,30.01,NW,323,0.0,0.0,41,0.00,,---,0.00,VWS V14.01,2013-01-22 09:20:00,
2013-01-22 04:25:00,29.0,8.3,30.01,NW,323,0.0,3.0,41,0.00,,---,0.00,VWS V14.01,2013-01-22 09:25:00,
2013-01-22 04:30:00,29.0,7.7,30.01,NW,317,1.0,2.0,40,0.00,,---,0.00,VWS V14.01,2013-01-22 09:30:00,
2013-01-22 04:35:00,29.1,7.8,30.01,NNW,337,0.0,3.0,40,0.00,,---,0.00,VWS V14.01,2013-01-22 09:35:00,
2013-01-22 04:40:00,29.1,8.4,30.01,NNW,337,0.0,0.0,41,0.00,,---,0.00,VWS V14.01,2013-01-22 09:40:00,
2013-01-22 04:46:00,28.7,9.1,30.02,NNW,337,0.0,3.0,43,0.00,,---,0.00,VWS V14.01,2013-01-22 09:46:00,
2013-01-22 04:51:00,28.5,8.3,30.02,NNW,337,0.0,1.0,42,0.00,,---,0.00,VWS V14.01,2013-01-22 09:51:00,
2013-01-22 04:56:00,28.4,7.7,30.02,NNW,337,0.0,1.0,41,0.00,,---,0.00,VWS V14.01,2013-01-22 09:56:00,
2013-01-22 05:01:00,28.3,8.2,30.03,NNW,327,0.0,0.0,42,0.00,,---,0.00,VWS V14.01,2013-01-22 10:01:00,
2013-01-22 05:06:00,28.2,8.1,30.03,NNW,327,0.0,1.0,42,0.00,,---,0.00,VWS V14.01,2013-01-22 10:06:00,
2013-01-22 05:11:00,28.0,8.4,30.03,NNW,327,0.0,1.0,43,0.00,,---,0.00,VWS V14.01,2013-01-22 10:11:00,
2013-01-22 05:16:00,27.8,8.2,30.04,NW,321,0.0,3.0,43,0.00,,---,0.00,VWS V14.01,2013-01-22 10:16:00,
2013-01-22 05:21:00,27.7,9.1,30.04,NW,321,0.0,0.0,45,0.00,,---,0.00,VWS V14.01,2013-01-22 10:21:00,
2013-01-22 05:26:00,27.4,8.9,30.04,NW,321,0.0,1.0,45,0.00,,---,0.00,VWS V14.01,2013-01-22 10:26:00,
2013-01-22 05:31:00,27.3,8.8,30.04,NW,321,0.0,0.0,45,0.00,,---,0.00,VWS V14.01,2013-01-22 10:31:00,
2013-01-22 05:36:00,27.0,9.5,30.04,NW,321,0.0,0.0,47,0.00,,---,0.00,VWS V14.01,2013-01-22 10:36:00,
2013-01-22 05:41:00,26.9,9.9,30.04,NW,321,0.0,0.0,48,0.00,,---,0.00,VWS V14.01,2013-01-22 10:41:00,
2013-01-22 05:46:00,26.9,9.4,30.05,NNW,331,0.0,3.0,47,0.00,,---,0.00,VWS V14.01,2013-01-22 10:46:00,
2013-01-22 05:51:00,27.1,9.6,30.05,NNW,330,0.0,1.0,47,0.00,,---,0.00,VWS V14.01,2013-01-22 10:51:00,
2013-01-22 05:56:00,27.1,9.6,30.05,NNW,330,0.0,2.0,47,0.00,,---,0.00,VWS V14.01,2013-01-22 10:56:00,
2013-01-22 06:01:00,26.9,9.9,30.05,NNW,330,0.0,2.0,48,0.00,,---,0.00,VWS V14.01,2013-01-22 11:01:00,
2013-01-22 06:06:00,26.9,9.9,30.05,NNW,328,0.0,3.0,48,0.00,,---,0.00,VWS V14.01,2013-01-22 11:06:00,
2013-01-22 06:11:00,27.0,9.5,30.05,NW,312,2.0,4.0,47,0.00,,---,0.00,VWS V14.01,2013-01-22 11:11:00,
2013-01-22 06:17:00,27.2,9.2,30.07,WNW,300,0.0,6.0,46,0.00,,---,0.00,VWS V14.01,2013-01-22 11:17:00,
2013-01-22 06:22:00,27.2,9.2,30.07,WNW,284,4.0,6.0,46,0.00,,---,0.00,VWS V14.01,2013-01-22 11:22:00,
2013-01-22 06:27:00,27.3,8.8,30.07,NW,308,2.0,6.0,45,0.00,,---,0.00,VWS V14.01,2013-01-22 11:27:00,
2013-01-22 06:32:00,27.2,8.7,30.08,WNW,288,0.0,5.0,45,0.00,,---,0.00,VWS V14.01,2013-01-22 11:32:00,
2013-01-22 06:37:00,27.0,9.0,30.08,WNW,288,0.0,5.0,46,0.00,,---,0.00,VWS V14.01,2013-01-22 11:37:00,
2013-01-22 06:42:00,26.9,8.4,30.08,NNE,21,0.0,3.0,45,0.00,,---,0.00,VWS V14.01,2013-01-22 11:42:00,
2013-01-22 06:47:00,26.7,8.2,30.08,North,355,0.0,3.0,45,0.00,,---,0.00,VWS V14.01,2013-01-22 11:47:00,
2013-01-22 06:52:00,26.5,8.5,30.08,North,355,0.0,2.0,46,0.00,,---,0.00,VWS V14.01,2013-01-22 11:52:00,
2013-01-22 06:57:00,26.1,9.1,30.08,North,355,0.0,2.0,48,0.00,,---,0.00,VWS V14.01,2013-01-22 11:57:00,
2013-01-22 07:02:00,25.8,9.7,30.09,North,355,0.0,1.0,50,0.00,,---,0.00,VWS V14.01,2013-01-22 12:02:00,
2013-01-22 07:08:00,25.6,9.6,30.09,North,355,1.0,3.0,50,0.00,,---,0.00,VWS V14.01,2013-01-22 12:08:00,
2013-01-22 07:13:00,25.5,9.0,30.09,North,360,0.0,2.0,49,0.00,,---,0.00,VWS V14.01,2013-01-22 12:13:00,
2013-01-22 07:18:00,25.5,8.1,30.10,North,360,0.0,2.0,47,0.00,,---,0.00,VWS V14.01,2013-01-22 12:18:00,
2013-01-22 07:23:00,25.4,8.0,30.10,North,360,0.0,2.0,47,0.00,,---,0.00,VWS V14.01,2013-01-22 12:23:00,
2013-01-22 07:28:00,25.4,8.0,30.10,North,350,0.0,5.0,47,0.00,,---,0.00,VWS V14.01,2013-01-22 12:28:00,
2013-01-22 07:33:00,25.5,6.6,30.11,NNW,348,0.0,4.0,44,0.00,,---,0.00,VWS V14.01,2013-01-22 12:33:00,
2013-01-22 07:38:00,25.6,6.7,30.11,North,355,0.0,5.0,44,0.00,,---,0.00,VWS V14.01,2013-01-22 12:38:00,
2013-01-22 07:43:00,25.5,7.1,30.11,NNE,27,0.0,2.0,45,0.00,,---,0.00,VWS V14.01,2013-01-22 12:43:00,
2013-01-22 07:48:00,25.6,6.2,30.12,NW,322,0.0,6.0,43,0.00,,---,0.00,VWS V14.01,2013-01-22 12:48:00,
2013-01-22 07:53:00,25.6,5.7,30.12,NW,309,3.0,6.0,42,0.00,,---,0.00,VWS V14.01,2013-01-22 12:53:00,
2013-01-22 07:58:00,25.8,5.4,30.12,North,9,2.0,10.0,41,0.00,,---,0.00,VWS V14.01,2013-01-22 12:58:00,
2013-01-22 08:03:00,25.8,4.8,30.12,NW,309,0.0,3.0,40,0.00,,---,0.00,VWS V14.01,2013-01-22 13:03:00,
2013-01-22 08:08:00,25.7,4.2,30.12,NNW,327,3.0,6.0,39,0.00,,---,0.00,VWS V14.01,2013-01-22 13:08:00,
2013-01-22 08:13:00,25.9,4.4,30.12,NNE,12,2.0,6.0,39,0.00,,---,0.00,VWS V14.01,2013-01-22 13:13:00,
2013-01-22 08:18:00,26.1,2.8,30.13,WNW,288,1.0,9.0,36,0.00,,---,0.00,VWS V14.01,2013-01-22 13:18:00,
2013-01-22 08:23:00,26.3,3.0,30.13,North,349,2.0,11.0,36,0.00,,---,0.00,VWS V14.01,2013-01-22 13:23:00,
2013-01-22 08:28:00,26.4,2.5,30.13,NE,45,4.0,11.0,35,0.00,,---,0.00,VWS V14.01,2013-01-22 13:28:00,
2013-01-22 08:33:00,26.5,1.9,30.14,North,11,3.0,12.0,34,0.00,,---,0.00,VWS V14.01,2013-01-22 13:33:00,
2013-01-22 08:38:00,26.8,1.6,30.14,WNW,303,4.0,12.0,33,0.00,,---,0.00,VWS V14.01,2013-01-22 13:38:00,
2013-01-22 08:43:00,26.9,1.6,30.14,NW,321,3.0,13.0,33,0.00,,---,0.00,VWS V14.01,2013-01-22 13:43:00,
2013-01-22 08:48:00,27.3,2.0,30.14,NE,50,3.0,13.0,33,0.00,,---,0.00,VWS V14.01,2013-01-22 13:48:00,
2013-01-22 08:54:00,27.5,2.2,30.14,NNE,14,10.0,13.0,33,0.00,,---,0.00,VWS V14.01,2013-01-22 13:54:00,
2013-01-22 08:59:00,27.7,1.7,30.15,WNW,303,6.0,13.0,32,0.00,,---,0.00,VWS V14.01,2013-01-22 13:59:00,
2013-01-22 09:04:00,28.0,1.3,30.15,WNW,293,3.0,9.0,31,0.00,,---,0.00,VWS V14.01,2013-01-22 14:04:00,
2013-01-22 09:09:00,28.3,1.5,30.15,NW,317,0.0,10.0,31,0.00,,---,0.00,VWS V14.01,2013-01-22 14:09:00,
2013-01-22 09:14:00,28.6,1.8,30.15,NNW,346,3.0,10.0,31,0.00,,---,0.00,VWS V14.01,2013-01-22 14:14:00,
2013-01-22 09:19:00,28.7,1.9,30.15,North,360,8.0,11.0,31,0.00,,---,0.00,VWS V14.01,2013-01-22 14:19:00,
2013-01-22 09:24:00,28.0,1.3,30.15,NNW,340,1.0,7.0,31,0.00,,---,0.00,VWS V14.01,2013-01-22 14:24:00,
2013-01-22 09:29:00,27.4,1.4,30.16,NE,42,3.0,11.0,32,0.00,,---,0.00,VWS V14.01,2013-01-22 14:29:00,
2013-01-22 09:34:00,27.3,2.0,30.16,NNW,344,2.0,10.0,33,0.00,,---,0.00,VWS V14.01,2013-01-22 14:34:00,
2013-01-22 09:39:00,27.7,2.4,30.16,NW,325,3.0,10.0,33,0.00,,---,0.00,VWS V14.01,2013-01-22 14:39:00,
2013-01-22 09:44:00,28.7,2.6,30.17,WNW,290,0.0,4.0,32,0.00,,---,0.00,VWS V14.01,2013-01-22 14:44:00,
2013-01-22 09:49:00,29.4,1.8,30.17,West,259,4.0,15.0,30,0.00,,---,0.00,VWS V14.01,2013-01-22 14:49:00,
2013-01-22 09:54:00,29.5,0.4,30.17,NW,309,6.0,11.0,28,0.00,,---,0.00,VWS V14.01,2013-01-22 14:54:00,
2013-01-22 09:59:00,29.4,1.1,30.17,NW,311,5.0,14.0,29,0.00,,---,0.00,VWS V14.01,2013-01-22 14:59:00,
2013-01-22 10:05:00,30.1,1.7,30.17,North,5,3.0,11.0,29,0.00,,---,0.00,VWS V14.01,2013-01-22 15:05:00,
2013-01-22 10:10:00,30.4,1.2,30.17,NNW,333,9.0,14.0,28,0.00,,---,0.00,VWS V14.01,2013-01-22 15:10:00,
2013-01-22 10:15:00,30.8,2.3,30.17,WNW,300,7.0,14.0,29,0.00,,---,0.00,VWS V14.01,2013-01-22 15:15:00,
2013-01-22 10:20:00,31.3,4.2,30.17,West,276,4.0,12.0,31,0.00,,---,0.00,VWS V14.01,2013-01-22 15:20:00,
2013-01-22 10:25:00,30.9,0.1,30.17,NW,311,4.0,14.0,26,0.00,,---,0.00,VWS V14.01,2013-01-22 15:25:00,
2013-01-22 10:30:00,31.2,0.3,30.17,WNW,286,3.0,4.0,26,0.00,,---,0.00,VWS V14.01,2013-01-22 15:30:00,
2013-01-22 10:35:00,31.7,1.6,30.17,WSW,253,5.0,11.0,27,0.00,,---,0.00,VWS V14.01,2013-01-22 15:35:00,
2013-01-22 10:40:00,31.9,1.7,30.17,WNW,287,3.0,10.0,27,0.00,,---,0.00,VWS V14.01,2013-01-22 15:40:00,
2013-01-22 10:45:00,31.9,1.7,30.18,NW,308,4.0,10.0,27,0.00,,---,0.00,VWS V14.01,2013-01-22 15:45:00,
2013-01-22 10:50:00,32.2,2.0,30.18,West,281,4.0,7.0,27,0.00,,---,0.00,VWS V14.01,2013-01-22 15:50:00,
2013-01-22 10:56:00,31.8,0.8,30.18,WNW,299,9.0,12.0,26,0.00,,---,0.00,VWS V14.01,2013-01-22 15:56:00,
2013-01-22 11:01:00,32.1,2.7,30.18,NW,318,6.0,11.0,28,0.00,,---,0.00,VWS V14.01,2013-01-22 16:01:00,
2013-01-22 11:06:00,32.5,2.2,30.18,West,266,5.0,12.0,27,0.00,,---,0.00,VWS V14.01,2013-01-22 16:06:00,
2013-01-22 11:11:00,32.1,1.1,30.18,WNW,296,6.0,6.0,26,0.00,,---,0.00,VWS V14.01,2013-01-22 16:11:00,
2013-01-22 11:17:00,33.2,3.6,30.18,West,267,4.0,7.0,28,0.00,,---,0.00,VWS V14.01,2013-01-22 16:17:00,
2013-01-22 11:22:00,33.3,3.7,30.18,SW,227,4.0,9.0,28,0.00,,---,0.00,VWS V14.01,2013-01-22 16:22:00,
2013-01-22 11:27:00,33.2,4.4,30.18,WSW,250,3.0,10.0,29,0.00,,---,0.00,VWS V14.01,2013-01-22 16:27:00,
2013-01-22 11:32:00,33.4,1.4,30.17,NNW,344,5.0,13.0,25,0.00,,---,0.00,VWS V14.01,2013-01-22 16:32:00,
2013-01-22 11:37:00,33.2,3.6,30.17,West,267,3.0,13.0,28,0.00,,---,0.00,VWS V14.01,2013-01-22 16:37:00,
2013-01-22 11:42:00,33.5,2.3,30.17,WNW,295,4.0,17.0,26,0.00,,---,0.00,VWS V14.01,2013-01-22 16:42:00,
2013-01-22 11:47:00,33.7,0.8,30.18,WSW,255,8.0,17.0,24,0.00,,---,0.00,VWS V14.01,2013-01-22 16:47:00,
2013-01-22 11:52:00,33.4,-0.4,30.18,West,277,2.0,16.0,23,0.00,,---,0.00,VWS V14.01,2013-01-22 16:52:00,
2013-01-22 11:57:00,33.7,-1.1,30.18,WSW,242,2.0,16.0,22,0.00,,---,0.00,VWS V14.01,2013-01-22 16:57:00,
2013-01-22 12:02:00,33.9,0.0,30.16,SW,229,5.0,14.0,23,0.00,,---,0.00,VWS V14.01,2013-01-22 17:02:00,
2013-01-22 12:07:00,34.4,1.4,30.16,NW,311,5.0,17.0,24,0.00,,---,0.00,VWS V14.01,2013-01-22 17:07:00,
2013-01-22 12:13:00,34.7,0.7,30.16,NNW,333,3.0,11.0,23,0.00,,---,0.00,VWS V14.01,2013-01-22 17:13:00,
2013-01-22 12:18:00,34.5,-0.4,30.15,WSW,248,4.0,15.0,22,0.00,,---,0.00,VWS V14.01,2013-01-22 17:18:00,
2013-01-22 12:23:00,34.9,3.5,30.15,WSW,247,6.0,10.0,26,0.00,,---,0.00,VWS V14.01,2013-01-22 17:23:00,
2013-01-22 12:28:00,34.8,0.8,30.15,NW,325,12.0,20.0,23,0.00,,---,0.00,VWS V14.01,2013-01-22 17:28:00,
2013-01-22 12:33:00,34.9,-1.1,30.15,West,273,11.0,15.0,21,0.00,,---,0.00,VWS V14.01,2013-01-22 17:33:00,
2013-01-22 12:38:00,34.9,0.9,30.15,WNW,283,2.0,15.0,23,0.00,,---,0.00,VWS V14.01,2013-01-22 17:38:00,
2013-01-22 12:43:00,36.0,0.9,30.15,West,268,5.0,12.0,22,0.00,,---,0.00,VWS V14.01,2013-01-22 17:43:00,
2013-01-22 12:48:00,35.5,-0.6,30.14,WNW,291,9.0,15.0,21,0.00,,---,0.00,VWS V14.01,2013-01-22 17:48:00,
2013-01-22 12:53:00,35.2,-0.8,30.14,NNW,338,1.0,14.0,21,0.00,,---,0.00,VWS V14.01,2013-01-22 17:53:00,
2013-01-22 12:58:00,35.4,-0.6,30.14,WSW,252,5.0,14.0,21,0.00,,---,0.00,VWS V14.01,2013-01-22 17:58:00,
2013-01-22 13:04:00,35.9,-0.2,30.14,West,268,10.0,13.0,21,0.00,,---,0.00,VWS V14.01,2013-01-22 18:04:00,
2013-01-22 13:09:00,36.6,1.4,30.14,WSW,239,2.0,13.0,22,0.00,,---,0.00,VWS V14.01,2013-01-22 18:09:00,
2013-01-22 13:14:00,36.6,1.4,30.13,West,277,6.0,18.0,22,0.00,,---,0.00,VWS V14.01,2013-01-22 18:14:00,
2013-01-22 13:19:00,36.4,2.2,30.13,West,266,13.0,18.0,23,0.00,,---,0.00,VWS V14.01,2013-01-22 18:19:00,
2013-01-22 13:24:00,35.8,-1.3,30.13,West,267,5.0,17.0,20,0.00,,---,0.00,VWS V14.01,2013-01-22 18:24:00,
2013-01-22 13:29:00,35.8,0.7,30.12,South,190,11.0,18.0,22,0.00,,---,0.00,VWS V14.01,2013-01-22 18:29:00,
2013-01-22 13:34:00,36.3,3.0,30.12,WNW,295,11.0,16.0,24,0.00,,---,0.00,VWS V14.01,2013-01-22 18:34:00,
2013-01-22 13:39:00,36.2,0.0,30.12,WSW,257,9.0,16.0,21,0.00,,---,0.00,VWS V14.01,2013-01-22 18:39:00,
2013-01-22 13:44:00,36.6,2.3,30.12,WNW,286,3.0,17.0,23,0.00,,---,0.00,VWS V14.01,2013-01-22 18:44:00,
2013-01-22 13:49:00,36.5,0.3,30.12,WSW,246,4.0,17.0,21,0.00,,---,0.00,VWS V14.01,2013-01-22 18:49:00,
2013-01-22 13:54:00,37.0,0.7,30.12,WSW,256,5.0,10.0,21,0.00,,---,0.00,VWS V14.01,2013-01-22 18:54:00,
2013-01-22 13:59:00,37.1,-1.3,30.12,SW,229,2.0,14.0,19,0.00,,---,0.00,VWS V14.01,2013-01-22 18:59:00,
2013-01-22 14:04:00,36.9,2.6,30.12,SW,226,7.0,11.0,23,0.00,,---,0.00,VWS V14.01,2013-01-22 19:04:00,
2013-01-22 14:09:00,37.2,1.9,30.12,SW,236,3.0,15.0,22,0.00,,---,0.00,VWS V14.01,2013-01-22 19:09:00,
2013-01-22 14:14:00,37.2,-0.2,30.12,NW,311,2.0,13.0,20,0.00,,---,0.00,VWS V14.01,2013-01-22 19:14:00,
2013-01-22 14:19:00,37.5,0.1,30.12,West,273,9.0,13.0,20,0.00,,---,0.00,VWS V14.01,2013-01-22 19:19:00,
2013-01-22 14:24:00,37.7,0.3,30.12,WNW,284,4.0,11.0,20,0.00,,---,0.00,VWS V14.01,2013-01-22 19:24:00,
2013-01-22 14:29:00,37.5,1.1,30.11,NW,325,2.0,12.0,21,0.00,,---,0.00,VWS V14.01,2013-01-22 19:29:00,
2013-01-22 14:34:00,37.7,1.3,30.11,WNW,303,8.0,11.0,21,0.00,,---,0.00,VWS V14.01,2013-01-22 19:34:00,
2013-01-22 14:39:00,37.3,-0.1,30.11,WNW,284,8.0,11.0,20,0.00,,---,0.00,VWS V14.01,2013-01-22 19:39:00,
2013-01-22 14:44:00,37.0,1.7,30.12,West,279,4.0,13.0,22,0.00,,---,0.00,VWS V14.01,2013-01-22 19:44:00,
2013-01-22 14:49:00,38.0,3.5,30.12,WNW,292,10.0,16.0,23,0.00,,---,0.00,VWS V14.01,2013-01-22 19:49:00,
2013-01-22 14:54:00,37.7,-0.8,30.12,West,266,1.0,16.0,19,0.00,,---,0.00,VWS V14.01,2013-01-22 19:54:00,
2013-01-22 14:59:00,37.9,3.4,30.12,WSW,257,7.0,16.0,23,0.00,,---,0.00,VWS V14.01,2013-01-22 19:59:00,
2013-01-22 15:04:00,38.2,3.7,30.12,NW,314,2.0,14.0,23,0.00,,---,0.00,VWS V14.01,2013-01-22 20:04:00,
2013-01-22 15:09:00,38.0,1.5,30.12,West,280,3.0,16.0,21,0.00,,---,0.00,VWS V14.01,2013-01-22 20:09:00,
2013-01-22 15:14:00,37.4,-1.1,30.11,WNW,296,10.0,13.0,19,0.00,,---,0.00,VWS V14.01,2013-01-22 20:14:00,
2013-01-22 15:19:00,37.2,-1.2,30.11,West,267,6.0,13.0,19,0.00,,---,0.00,VWS V14.01,2013-01-22 20:19:00,
2013-01-22 15:25:00,37.6,-0.9,30.11,West,279,10.0,10.0,19,0.00,,---,0.00,VWS V14.01,2013-01-22 20:25:00,
2013-01-22 15:30:00,37.9,1.5,30.12,SW,230,3.0,5.0,21,0.00,,---,0.00,VWS V14.01,2013-01-22 20:30:00,
2013-01-22 15:35:00,37.3,-1.2,30.12,WNW,286,7.0,13.0,19,0.00,,---,0.00,VWS V14.01,2013-01-22 20:35:00,
2013-01-22 15:40:00,37.1,0.8,30.12,WNW,294,3.0,4.0,21,0.00,,---,0.00,VWS V14.01,2013-01-22 20:40:00,
2013-01-22 15:45:00,37.5,1.1,30.11,WSW,254,5.0,9.0,21,0.00,,---,0.00,VWS V14.01,2013-01-22 20:45:00,
2013-01-22 15:50:00,37.7,1.3,30.11,SW,225,10.0,10.0,21,0.00,,---,0.00,VWS V14.01,2013-01-22 20:50:00,
2013-01-22 15:55:00,37.2,-1.2,30.11,NNW,327,3.0,13.0,19,0.00,,---,0.00,VWS V14.01,2013-01-22 20:55:00,
2013-01-22 16:00:00,37.4,-1.1,30.12,NNW,333,5.0,7.0,19,0.00,,---,0.00,VWS V14.01,2013-01-22 21:00:00,
2013-01-22 16:05:00,37.4,-1.1,30.12,WSW,252,7.0,13.0,19,0.00,,---,0.00,VWS V14.01,2013-01-22 21:05:00,
2013-01-22 16:10:00,37.1,-0.2,30.12,WNW,295,6.0,6.0,20,0.00,,---,0.00,VWS V14.01,2013-01-22 21:10:00,
2013-01-22 16:15:00,37.3,2.9,30.13,WNW,293,4.0,10.0,23,0.00,,---,0.00,VWS V14.01,2013-01-22 21:15:00,
2013-01-22 16:20:00,37.2,-1.2,30.13,WNW,290,5.0,6.0,19,0.00,,---,0.00,VWS V14.01,2013-01-22 21:20:00,
2013-01-22 16:25:00,36.9,-0.4,30.13,SW,236,3.0,13.0,20,0.00,,---,0.00,VWS V14.01,2013-01-22 21:25:00,
2013-01-22 16:30:00,36.6,0.4,30.13,WNW,296,5.0,6.0,21,0.00,,---,0.00,VWS V14.01,2013-01-22 21:30:00,
2013-01-22 16:31:00,36.5,-1.8,30.13,WNW,292,2.0,6.0,19,0.00,,---,0.00,VWS V14.01,2013-01-22 21:31:00,
2013-01-22 16:36:00,36.3,-0.9,30.13,WSW,250,3.0,7.0,20,0.00,,---,0.00,VWS V14.01,2013-01-22 21:36:00,
2013-01-22 16:42:00,36.4,1.2,30.13,West,265,4.0,6.0,22,0.00,,---,0.00,VWS V14.01,2013-01-22 21:42:00,
2013-01-22 16:47:00,36.1,-0.1,30.13,West,268,5.0,11.0,21,0.00,,---,0.00,VWS V14.01,2013-01-22 21:47:00,
2013-01-22 16:52:00,35.7,-0.4,30.13,WSW,255,4.0,7.0,21,0.00,,---,0.00,VWS V14.01,2013-01-22 21:52:00,
2013-01-22 16:57:00,35.5,-0.6,30.13,West,262,5.0,12.0,21,0.00,,---,0.00,VWS V14.01,2013-01-22 21:57:00,
2013-01-22 17:02:00,35.3,-0.7,30.13,WSW,257,5.0,9.0,21,0.00,,---,0.00,VWS V14.01,2013-01-22 22:02:00,
2013-01-22 17:07:00,34.9,-0.1,30.13,WNW,282,8.0,10.0,22,0.00,,---,0.00,VWS V14.01,2013-01-22 22:07:00,
2013-01-22 17:12:00,34.7,0.7,30.13,WSW,252,1.0,5.0,23,0.00,,---,0.00,VWS V14.01,2013-01-22 22:12:00,
2013-01-22 17:17:00,34.4,-0.5,30.14,WSW,241,1.0,5.0,22,0.00,,---,0.00,VWS V14.01,2013-01-22 22:17:00,
2013-01-22 17:22:00,34.2,-0.7,30.14,West,268,2.0,8.0,22,0.00,,---,0.00,VWS V14.01,2013-01-22 22:22:00,
2013-01-22 17:27:00,34.0,0.1,30.14,West,268,6.0,9.0,23,0.00,,---,0.00,VWS V14.01,2013-01-22 22:27:00,
2013-01-22 17:32:00,33.8,0.8,30.14,West,269,4.0,5.0,24,0.00,,---,0.00,VWS V14.01,2013-01-22 22:32:00,
2013-01-22 17:37:00,33.5,0.6,30.14,WNW,290,4.0,8.0,24,0.00,,---,0.00,VWS V14.01,2013-01-22 22:37:00,
2013-01-22 17:42:00,33.3,1.3,30.14,WNW,288,2.0,4.0,25,0.00,,---,0.00,VWS V14.01,2013-01-22 22:42:00,
2013-01-22 17:47:00,32.8,0.9,30.15,SW,230,1.0,6.0,25,0.00,,---,0.00,VWS V14.01,2013-01-22 22:47:00,
2013-01-22 17:52:00,32.6,1.5,30.15,West,281,1.0,3.0,26,0.00,,---,0.00,VWS V14.01,2013-01-22 22:52:00,
2013-01-22 17:57:00,32.4,0.5,30.15,WNW,296,1.0,7.0,25,0.00,,---,0.00,VWS V14.01,2013-01-22 22:57:00,
2013-01-22 18:02:00,32.5,-0.3,30.15,WNW,286,6.0,9.0,24,0.00,,---,0.00,VWS V14.01,2013-01-22 23:02:00,
2013-01-22 18:08:00,32.5,0.6,30.15,WNW,292,3.0,9.0,25,0.00,,---,0.00,VWS V14.01,2013-01-22 23:08:00,
2013-01-22 18:13:00,32.1,0.3,30.15,WNW,291,2.0,4.0,25,0.00,,---,0.00,VWS V14.01,2013-01-22 23:13:00,
2013-01-22 18:18:00,31.9,0.1,30.16,West,274,1.0,6.0,25,0.00,,---,0.00,VWS V14.01,2013-01-22 23:18:00,
2013-01-22 18:23:00,31.9,-0.8,30.16,WNW,289,2.0,6.0,24,0.00,,---,0.00,VWS V14.01,2013-01-22 23:23:00,
2013-01-22 18:28:00,31.8,0.0,30.16,WNW,287,0.0,6.0,25,0.00,,---,0.00,VWS V14.01,2013-01-22 23:28:00,
2013-01-22 18:33:00,31.4,0.5,30.17,WNW,287,0.0,3.0,26,0.00,,---,0.00,VWS V14.01,2013-01-22 23:33:00,
2013-01-22 18:38:00,31.1,1.0,30.17,WNW,287,0.0,3.0,27,0.00,,---,0.00,VWS V14.01,2013-01-22 23:38:00,
2013-01-22 18:43:00,30.7,-0.1,30.17,WNW,287,1.0,2.0,26,0.00,,---,0.00,VWS V14.01,2013-01-22 23:43:00,
2013-01-22 18:48:00,30.5,-0.3,30.17,WNW,300,0.0,3.0,26,0.00,,---,0.00,VWS V14.01,2013-01-22 23:48:00,
2013-01-22 18:53:00,30.5,-0.3,30.17,WNW,300,0.0,3.0,26,0.00,,---,0.00,VWS V14.01,2013-01-22 23:53:00,
2013-01-22 18:58:00,30.1,0.9,30.17,WNW,300,0.0,3.0,28,0.00,,---,0.00,VWS V14.01,2013-01-22 23:58:00,
2013-01-22 19:03:00,29.8,-0.1,30.16,WNW,300,0.0,0.0,27,0.00,,---,0.00,VWS V14.01,2013-01-23 00:03:00,
2013-01-22 19:08:00,29.5,-0.3,30.16,WNW,300,0.0,0.0,27,0.00,,---,0.00,VWS V14.01,2013-01-23 00:08:00,
2013-01-22 19:13:00,29.2,1.6,30.16,WNW,300,0.0,1.0,30,0.00,,---,0.00,VWS V14.01,2013-01-23 00:13:00,
2013-01-22 19:19:00,29.0,2.2,30.17,WNW,300,0.0,1.0,31,0.00,,---,0.00,VWS V14.01,2013-01-23 00:19:00,
2013-01-22 19:24:00,28.7,2.6,30.17,WNW,300,0.0,0.0,32,0.00,,---,0.00,VWS V14.01,2013-01-23 00:24:00,
2013-01-22 19:29:00,28.3,2.9,30.17,WNW,300,0.0,0.0,33,0.00,,---,0.00,VWS V14.01,2013-01-23 00:29:00,
2013-01-22 19:34:00,28.0,2.6,30.17,WNW,300,0.0,0.0,33,0.00,,---,0.00,VWS V14.01,2013-01-23 00:34:00,
2013-01-22 19:39:00,27.7,3.6,30.17,WNW,300,0.0,0.0,35,0.00,,---,0.00,VWS V14.01,2013-01-23 00:39:00,
2013-01-22 19:44:00,27.3,3.9,30.18,WNW,300,0.0,0.0,36,0.00,,---,0.00,VWS V14.01,2013-01-23 00:44:00,
2013-01-22 19:49:00,27.5,4.1,30.18,WNW,300,0.0,0.0,36,0.00,,---,0.00,VWS V14.01,2013-01-23 00:49:00,
2013-01-22 19:54:00,27.5,4.7,30.18,WNW,300,0.0,0.0,37,0.00,,---,0.00,VWS V14.01,2013-01-23 00:54:00,
2013-01-22 19:59:00,27.7,5.4,30.18,WNW,300,0.0,1.0,38,0.00,,---,0.00,VWS V14.01,2013-01-23 00:59:00,
2013-01-22 20:04:00,27.9,5.0,30.18,WNW,300,0.0,0.0,37,0.00,,---,0.00,VWS V14.01,2013-01-23 01:04:00,
2013-01-22 20:09:00,28.2,5.9,30.18,WNW,300,0.0,1.0,38,0.00,,---,0.00,VWS V14.01,2013-01-23 01:09:00,
2013-01-22 20:14:00,28.5,5.6,30.18,WNW,300,0.0,2.0,37,0.00,,---,0.00,VWS V14.01,2013-01-23 01:14:00,
2013-01-22 20:19:00,28.8,3.3,30.18,WNW,295,1.0,3.0,33,0.00,,---,0.00,VWS V14.01,2013-01-23 01:19:00,
2013-01-22 20:24:00,29.1,2.9,30.18,WNW,295,0.0,3.0,32,0.00,,---,0.00,VWS V14.01,2013-01-23 01:24:00,
2013-01-22 20:29:00,29.4,2.5,30.18,NNW,347,3.0,4.0,31,0.00,,---,0.00,VWS V14.01,2013-01-23 01:29:00,
2013-01-22 20:35:00,29.6,2.0,30.18,NNW,338,2.0,4.0,30,0.00,,---,0.00,VWS V14.01,2013-01-23 01:35:00,
2013-01-22 20:40:00,29.6,2.0,30.18,NW,325,4.0,4.0,30,0.00,,---,0.00,VWS V14.01,2013-01-23 01:40:00,
2013-01-22 20:45:00,29.6,2.0,30.18,WNW,299,1.0,4.0,30,0.00,,---,0.00,VWS V14.01,2013-01-23 01:45:00,
2013-01-22 20:50:00,29.2,2.3,30.18,WNW,284,0.0,0.0,31,0.00,,---,0.00,VWS V14.01,2013-01-23 01:50:00,
2013-01-22 20:55:00,28.9,2.1,30.18,West,267,0.0,4.0,31,0.00,,---,0.00,VWS V14.01,2013-01-23 01:55:00,
2013-01-22 21:00:00,28.6,2.5,30.18,West,267,1.0,2.0,32,0.00,,---,0.00,VWS V14.01,2013-01-23 02:00:00,
2013-01-22 21:06:00,28.2,2.1,30.18,NW,317,0.0,4.0,32,0.00,,---,0.00,VWS V14.01,2013-01-23 02:06:00,
2013-01-22 21:11:00,28.1,2.0,30.18,NW,317,1.0,2.0,32,0.00,,---,0.00,VWS V14.01,2013-01-23 02:11:00,
2013-01-22 21:16:00,28.0,2.0,30.18,NW,317,0.0,2.0,32,0.00,,---,0.00,VWS V14.01,2013-01-23 02:16:00,
2013-01-22 21:21:00,27.9,1.9,30.18,NNW,332,0.0,4.0,32,0.00,,---,0.00,VWS V14.01,2013-01-23 02:21:00,
2013-01-22 21:26:00,27.7,2.4,30.18,NNW,332,0.0,4.0,33,0.00,,---,0.00,VWS V14.01,2013-01-23 02:26:00,
2013-01-22 21:31:00,27.5,2.2,30.20,NNW,332,0.0,0.0,33,0.00,,---,0.00,VWS V14.01,2013-01-23 02:31:00,
2013-01-22 21:36:00,27.4,2.1,30.20,NNW,332,0.0,1.0,33,0.00,,---,0.00,VWS V14.01,2013-01-23 02:36:00,
2013-01-22 21:41:00,27.1,3.1,30.20,NNW,332,0.0,1.0,35,0.00,,---,0.00,VWS V14.01,2013-01-23 02:41:00,
2013-01-22 21:46:00,26.8,3.4,30.22,NNW,332,0.0,1.0,36,0.00,,---,0.00,VWS V14.01,2013-01-23 02:46:00,
2013-01-22 21:51:00,26.6,5.0,30.22,NNW,332,0.0,0.0,39,0.00,,---,0.00,VWS V14.01,2013-01-23 02:51:00,
2013-01-22 21:57:00,26.3,5.3,30.22,NNW,332,0.0,1.0,40,0.00,,---,0.00,VWS V14.01,2013-01-23 02:57:00,
2013-01-22 22:02:00,26.2,6.8,30.22,NNW,332,0.0,1.0,43,0.00,,---,0.00,VWS V14.01,2013-01-23 03:02:00,
2013-01-22 22:07:00,26.1,6.2,30.22,NNW,332,1.0,1.0,42,0.00,,---,0.00,VWS V14.01,2013-01-23 03:07:00,
2013-01-22 22:12:00,26.1,4.5,30.22,WNW,286,2.0,4.0,39,0.00,,---,0.00,VWS V14.01,2013-01-23 03:12:00,
2013-01-22 22:17:00,26.5,3.2,30.22,WNW,287,0.0,4.0,36,0.00,,---,0.00,VWS V14.01,2013-01-23 03:17:00,
2013-01-22 22:22:00,26.6,2.7,30.22,WNW,287,0.0,1.0,35,0.00,,---,0.00,VWS V14.01,2013-01-23 03:22:00,
2013-01-22 22:27:00,26.7,2.7,30.22,West,279,3.0,3.0,35,0.00,,---,0.00,VWS V14.01,2013-01-23 03:27:00,
2013-01-22 22:32:00,26.6,2.7,30.22,West,276,1.0,2.0,35,0.00,,---,0.00,VWS V14.01,2013-01-23 03:32:00,
2013-01-22 22:37:00,26.5,3.8,30.22,West,276,0.0,2.0,37,0.00,,---,0.00,VWS V14.01,2013-01-23 03:37:00,
2013-01-22 22:42:00,26.2,2.9,30.22,West,276,0.0,0.0,36,0.00,,---,0.00,VWS V14.01,2013-01-23 03:42:00,
2013-01-22 22:47:00,26.1,2.8,30.21,West,276,0.0,1.0,36,0.00,,---,0.00,VWS V14.01,2013-01-23 03:47:00,
2013-01-22 22:52:00,26.1,2.8,30.21,West,276,1.0,1.0,36,0.00,,---,0.00,VWS V14.01,2013-01-23 03:52:00,
2013-01-22 22:57:00,26.0,4.4,30.21,West,276,0.0,1.0,39,0.00,,---,0.00,VWS V14.01,2013-01-23 03:57:00,
2013-01-22 23:02:00,25.6,6.2,30.22,West,276,0.0,1.0,43,0.00,,---,0.00,VWS V14.01,2013-01-23 04:02:00,
2013-01-22 23:08:00,25.4,9.4,30.22,West,276,0.0,1.0,50,0.00,,---,0.00,VWS V14.01,2013-01-23 04:08:00,
2013-01-22 23:13:00,25.2,10.5,30.22,West,276,0.0,0.0,53,0.00,,---,0.00,VWS V14.01,2013-01-23 04:13:00,
2013-01-22 23:18:00,25.1,8.6,30.22,West,276,0.0,0.0,49,0.00,,---,0.00,VWS V14.01,2013-01-23 04:18:00,
2013-01-22 23:23:00,25.0,7.6,30.22,West,276,0.0,0.0,47,0.00,,---,0.00,VWS V14.01,2013-01-23 04:23:00,
2013-01-22 23:28:00,24.8,7.0,30.22,West,276,2.0,2.0,46,0.00,,---,0.00,VWS V14.01,2013-01-23 04:28:00,
2013-01-22 23:33:00,24.9,5.1,30.22,West,276,0.0,2.0,42,0.00,,---,0.00,VWS V14.01,2013-01-23 04:33:00,
2013-01-22 23:38:00,25.1,5.2,30.22,West,276,0.0,2.0,42,0.00,,---,0.00,VWS V14.01,2013-01-23 04:38:00,
2013-01-22 23:43:00,25.4,2.8,30.22,West,276,0.0,3.0,37,0.00,,---,0.00,VWS V14.01,2013-01-23 04:43:00,
2013-01-22 23:48:00,25.9,3.2,30.21,West,276,0.0,3.0,37,0.00,,---,0.00,VWS V14.01,2013-01-23 04:48:00,
2013-01-22 23:53:00,25.7,4.2,30.21,West,276,0.0,2.0,39,0.00,,---,0.00,VWS V14.01,2013-01-23 04:53:00,
2013-01-22 23:58:00,25.6,3.0,30.21,West,276,0.0,3.0,37,0.00,,---,0.00,VWS V14.01,2013-01-23 04:58:00,